Old Mystic, Connecticut
Current Conditions -  °F | °C
As of 2:53 PM on Thursday 23 Oct 2014 (Local Time) from KWST Reporting Station
Overcast Overcast  
Wind Chill: 57°   Ceiling: 1400
Heat Index: 57°   Visibility: 10mi
Dew Point: 51°   Wind: 15mph
Humidity: 81%   Direction: 350°N
Pressure: 29.56"   Gusts: 24mph
Location:  41.39°N, 71.96°W
Report Text: KWST 231853Z AUTO 35013G21KT 10SM OVC014 14/11 A2956 RMK AO2 SLP008 T01390106
Loading
Personal Weather Stations






























Interactive Weather Map
Tropical Storm Tracking
New forecast layout! Learn more

10-Day Weather Forecast

Advertisements
Track Severe Weather on mobile